Time;durP1;ratioP1;P1;durP2;ratioP2;P2;SDS_P1;SDS_P2;PMS_P1;PMS_P2;Temp;Humidity;BMP_temperature;BMP_pressure;BME280_temperature;BME280_humidity;BME280_pressure;Samples;Min_cycle;Max_cycle;Signal;HPM_P1;HPM_P2
2023/10/21 00:00:19;;;;;;;16.85;10.10;;;;;;;9.16;100.00;98369.78;6214938;23;20004;-85
2023/10/21 00:02:45;;;;;;;14.73;10.55;;;;;;;8.90;100.00;98339.63;6214931;23;20056;-83
2023/10/21 00:05:10;;;;;;;21.00;10.68;;;;;;;9.01;100.00;98361.75;6214781;23;20103;-84
2023/10/21 00:07:35;;;;;;;15.57;10.00;;;;;;;8.93;100.00;98353.16;6214632;23;20150;-81
2023/10/21 00:10:01;;;;;;;18.33;9.82;;;;;;;8.97;100.00;98360.44;6214586;23;20012;-83
2023/10/21 00:12:26;;;;;;;14.25;9.00;;;;;;;8.96;100.00;98369.13;6214738;23;20396;-85
2023/10/21 00:14:51;;;;;;;16.02;9.85;;;;;;;8.91;100.00;98369.53;6214634;23;20005;-85
2023/10/21 00:17:17;;;;;;;16.48;9.60;;;;;;;8.80;100.00;98356.09;6214944;23;20319;-82
2023/10/21 00:19:42;;;;;;;14.13;9.85;;;;;;;8.98;100.00;98381.84;6188236;23;20047;-81
2023/10/21 00:22:07;;;;;;;15.00;10.00;;;;;;;8.97;100.00;98387.94;6188279;23;20023;-80
2023/10/21 00:24:33;;;;;;;15.57;10.23;;;;;;;8.95;100.00;98398.41;6214813;23;20442;-79
2023/10/21 00:26:58;;;;;;;13.80;10.20;;;;;;;8.93;100.00;98394.31;6214641;23;20088;-80
2023/10/21 00:29:23;;;;;;;14.13;9.52;;;;;;;9.01;100.00;98407.28;6214427;23;20043;-79
2023/10/21 00:31:49;;;;;;;16.13;10.05;;;;;;;9.06;100.00;98411.06;6214375;23;20020;-79
2023/10/21 00:34:14;;;;;;;18.83;10.15;;;;;;;9.08;100.00;98416.06;6214487;23;20000;-83
2023/10/21 00:36:39;;;;;;;16.45;10.00;;;;;;;8.96;100.00;98394.06;6215333;23;20050;-79
2023/10/21 00:39:10;;;;;;;16.48;10.25;;;;;;;9.08;100.00;98413.47;6213908;23;20004;-85
2023/10/21 00:41:36;;;;;;;16.60;10.55;;;;;;;9.15;100.00;98427.41;6216182;23;20027;-82
2023/10/21 00:44:02;;;;;;;17.67;10.82;;;;;;;9.20;100.00;98427.75;6216443;23;20007;-82
2023/10/21 00:46:28;;;;;;;16.58;10.55;;;;;;;9.28;100.00;98432.97;6216319;23;20001;-81
2023/10/21 00:48:53;;;;;;;19.95;10.27;;;;;;;9.42;100.00;98429.88;6216508;23;20054;-83
2023/10/21 00:51:19;;;;;;;16.27;10.63;;;;;;;9.49;100.00;98435.25;6216343;23;20446;-86
2023/10/21 00:53:44;;;;;;;15.80;9.77;;;;;;;9.51;100.00;98442.84;6216151;23;20005;-86
2023/10/21 00:56:10;;;;;;;17.65;10.43;;;;;;;9.47;100.00;98440.56;6216744;23;20004;-78
2023/10/21 00:58:36;;;;;;;17.13;9.70;;;;;;;9.46;100.00;98449.25;6216615;23;20009;-85
2023/10/21 01:01:06;;;;;;;15.88;9.48;;;;;;;9.45;100.00;98459.72;6216624;23;20008;-85
2023/10/21 01:03:33;;;;;;;16.33;9.70;;;;;;;9.38;100.00;98458.66;6216286;23;20005;-86
2023/10/21 01:05:58;;;;;;;16.77;9.32;;;;;;;9.11;100.00;98410.59;6216495;23;20005;-85
2023/10/21 01:08:24;;;;;;;16.10;8.95;;;;;;;9.38;100.00;98469.78;6215921;23;20001;-86
2023/10/21 01:10:49;;;;;;;18.83;10.80;;;;;;;9.32;100.00;98462.63;6216307;23;20015;-81
2023/10/21 01:13:15;;;;;;;19.90;13.25;;;;;;;9.32;100.00;98466.97;6216119;23;20004;-85
2023/10/21 01:15:40;;;;;;;21.65;15.35;;;;;;;9.34;100.00;98475.34;6215825;23;20009;-82
2023/10/21 01:18:08;;;;;;;23.73;17.40;;;;;;;9.33;100.00;98476.31;6215461;23;20016;-79
2023/10/21 01:20:39;;;;;;;23.15;17.17;;;;;;;9.34;100.00;98470.19;6214520;23;20001;-78
2023/10/21 01:23:06;;;;;;;22.35;14.82;;;;;;;9.36;100.00;98476.03;6216228;23;20011;-83
2023/10/21 01:25:32;;;;;;;22.92;15.10;;;;;;;9.38;100.00;98471.53;6216095;23;20437;-80
2023/10/21 01:27:58;;;;;;;20.50;14.23;;;;;;;9.35;100.00;98477.81;6215514;23;20080;-78
2023/10/21 01:30:23;;;;;;;22.50;15.15;;;;;;;9.26;100.00;98470.97;6219913;23;20062;-78
2023/10/21 01:32:49;;;;;;;17.25;11.88;;;;;;;9.43;100.00;98492.50;6219648;23;20380;-83
2023/10/21 01:35:15;;;;;;;17.08;12.35;;;;;;;9.47;100.00;98492.09;6216917;23;20084;-82
2023/10/21 01:37:42;;;;;;;22.38;12.93;;;;;;;9.37;100.00;98470.75;6216492;23;20370;-86
2023/10/21 01:40:10;;;;;;;21.08;12.70;;;;;;;9.53;100.00;98489.88;6215895;23;20001;-83
2023/10/21 01:42:35;;;;;;;18.38;11.68;;;;;;;9.58;100.00;98490.25;6215954;23;20004;-84
2023/10/21 01:45:01;;;;;;;18.58;11.75;;;;;;;9.46;100.00;98466.47;6216127;23;20338;-84
2023/10/21 01:47:26;;;;;;;20.85;11.68;;;;;;;9.71;100.00;98498.41;6215394;23;20020;-85
2023/10/21 01:49:52;;;;;;;21.55;11.38;;;;;;;9.71;100.00;98488.91;6216229;23;20005;-84
2023/10/21 01:52:17;;;;;;;19.90;11.27;;;;;;;9.81;100.00;98490.59;6215855;23;20498;-85
2023/10/21 01:54:46;;;;;;;21.05;12.25;;;;;;;9.67;100.00;98471.31;6216019;23;20009;-86
2023/10/21 01:57:11;;;;;;;21.83;12.43;;;;;;;9.80;100.00;98483.81;6215652;23;20012;-85
2023/10/21 01:59:40;;;;;;;20.55;12.20;;;;;;;9.97;100.00;98490.72;6215846;23;20001;-84
2023/10/21 02:02:06;;;;;;;24.33;12.23;;;;;;;10.01;100.00;98504.94;6215505;23;20000;-82
2023/10/21 02:04:31;;;;;;;18.13;11.90;;;;;;;10.04;100.00;98510.63;6214306;23;20009;-85
2023/10/21 02:06:57;;;;;;;17.98;12.80;;;;;;;10.05;100.00;98519.16;6215438;23;20439;-79
2023/10/21 02:09:22;;;;;;;17.60;12.27;;;;;;;10.04;100.00;98515.78;6215958;23;20001;-83
2023/10/21 02:11:47;;;;;;;18.52;11.88;;;;;;;9.88;100.00;98484.69;6212866;23;20490;-81
2023/10/21 02:14:13;;;;;;;21.58;12.20;;;;;;;10.06;100.00;98518.19;6215123;23;20009;-84
2023/10/21 02:16:39;;;;;;;19.25;11.65;;;;;;;10.07;100.00;98520.63;6215521;23;20415;-84
2023/10/21 02:19:04;;;;;;;18.90;11.63;;;;;;;10.10;100.00;98524.66;6215847;23;20028;-80
2023/10/21 02:21:29;;;;;;;20.70;12.00;;;;;;;10.09;100.00;98527.41;6216008;23;20011;-82
2023/10/21 02:23:55;;;;;;;19.30;11.27;;;;;;;10.12;100.00;98527.09;6215813;23;20004;-80
2023/10/21 02:26:20;;;;;;;21.05;11.73;;;;;;;10.08;100.00;98521.44;6215405;23;20008;-77
2023/10/21 02:28:45;;;;;;;17.58;10.95;;;;;;;10.03;100.00;98521.91;6215119;23;20001;-83
2023/10/21 02:31:12;;;;;;;19.90;11.65;;;;;;;10.11;100.00;98535.78;6215199;23;20016;-80
2023/10/21 02:33:37;;;;;;;19.23;11.15;;;;;;;10.11;100.00;98546.09;6215497;23;20005;-82
2023/10/21 02:36:03;;;;;;;21.05;12.20;;;;;;;9.92;100.00;98524.69;6215664;23;20008;-78
2023/10/21 02:38:29;;;;;;;22.38;11.45;;;;;;;10.09;100.00;98543.69;6215387;23;20005;-84
2023/10/21 02:40:54;;;;;;;19.50;11.85;;;;;;;9.80;100.00;98512.19;6215398;23;20009;-84
2023/10/21 02:43:19;;;;;;;20.27;11.57;;;;;;;10.06;100.00;98547.38;6215302;23;20322;-84
2023/10/21 02:45:45;;;;;;;17.40;10.98;;;;;;;10.04;100.00;98557.03;6215384;23;20453;-80
2023/10/21 02:48:10;;;;;;;17.63;11.05;;;;;;;9.97;100.00;98544.88;6215084;23;20016;-80
2023/10/21 02:50:36;;;;;;;15.15;10.02;;;;;;;10.10;100.00;98560.75;6215344;23;20001;-79
2023/10/21 02:53:01;;;;;;;18.00;10.70;;;;;;;10.10;100.00;98558.19;6215621;23;20062;-78
2023/10/21 02:55:27;;;;;;;20.40;11.13;;;;;;;10.08;100.00;98560.13;6215291;23;20012;-77
2023/10/21 02:57:53;;;;;;;16.98;10.68;;;;;;;10.12;100.00;98570.94;6214684;23;20435;-78
2023/10/21 03:00:21;;;;;;;19.98;11.00;;;;;;;10.13;100.00;98573.38;6215184;23;20007;-80
2023/10/21 03:02:48;;;;;;;18.38;11.00;;;;;;;10.13;100.00;98578.53;6215108;23;20001;-79
2023/10/21 03:05:17;;;;;;;17.35;10.20;;;;;;;10.06;100.00;98570.59;6215204;23;20064;-79
2023/10/21 03:07:43;;;;;;;18.35;11.80;;;;;;;10.08;100.00;98575.59;6214893;23;20386;-83
2023/10/21 03:10:11;;;;;;;21.48;11.43;;;;;;;9.90;100.00;98549.00;6214737;23;20473;-80
2023/10/21 03:12:37;;;;;;;19.63;11.35;;;;;;;9.99;100.00;98556.66;6214926;23;20431;-80
2023/10/21 03:15:03;;;;;;;21.00;11.25;;;;;;;10.11;100.00;98589.94;6214882;23;20020;-82
2023/10/21 03:17:29;;;;;;;16.98;10.85;;;;;;;10.12;100.00;98583.81;6214928;23;20036;-80
2023/10/21 03:19:54;;;;;;;18.05;11.27;;;;;;;10.18;100.00;98594.38;6214853;23;20024;-81
2023/10/21 03:22:20;;;;;;;16.90;11.00;;;;;;;10.05;100.00;98579.28;6214759;23;20004;-85
2023/10/21 03:24:46;;;;;;;18.15;10.90;;;;;;;10.12;100.00;98589.78;6214809;23;20076;-84
2023/10/21 03:27:13;;;;;;;18.85;10.90;;;;;;;10.13;100.00;98591.44;6214889;23;20036;-81
2023/10/21 03:29:39;;;;;;;22.92;11.68;;;;;;;9.93;100.00;98577.88;6214980;23;20051;-84
2023/10/21 03:32:05;;;;;;;18.17;11.05;;;;;;;9.91;100.00;98582.34;6214816;23;20013;-78
2023/10/21 03:34:32;;;;;;;22.05;11.52;;;;;;;9.95;100.00;98601.75;6214955;23;20000;-80
2023/10/21 03:36:57;;;;;;;17.60;11.00;;;;;;;10.01;100.00;98616.63;6214821;23;20015;-80
2023/10/21 03:39:23;;;;;;;20.33;11.48;;;;;;;10.01;100.00;98620.97;6214691;23;20008;-82
2023/10/21 03:41:48;;;;;;;17.55;10.77;;;;;;;10.02;100.00;98625.16;6214935;23;20005;-84
2023/10/21 03:44:13;;;;;;;20.80;11.55;;;;;;;9.92;100.00;98620.06;6214718;23;20023;-85
2023/10/21 03:46:39;;;;;;;20.67;10.93;;;;;;;9.83;100.00;98613.22;6214842;23;20423;-78
2023/10/21 03:49:04;;;;;;;17.30;10.80;;;;;;;9.95;100.00;98632.69;6214764;23;20036;-81
2023/10/21 03:51:30;;;;;;;21.83;11.35;;;;;;;9.95;100.00;98640.41;6214595;23;20011;-81
2023/10/21 03:53:55;;;;;;;17.15;10.80;;;;;;;9.82;100.00;98629.63;6214729;23;20004;-85
2023/10/21 03:56:21;;;;;;;17.85;10.60;;;;;;;9.71;100.00;98610.03;6214565;23;20075;-83
2023/10/21 03:58:46;;;;;;;19.92;10.57;;;;;;;9.92;100.00;98635.53;6214534;23;20004;-81
2023/10/21 04:01:11;;;;;;;19.65;11.02;;;;;;;9.94;100.00;98649.13;6214286;23;20032;-81
2023/10/21 04:03:37;;;;;;;18.17;9.75;;;;;;;9.89;100.00;98655.66;6214909;23;20035;-81
2023/10/21 04:06:03;;;;;;;17.75;9.85;;;;;;;9.86;100.00;98651.59;6214652;23;20001;-83
2023/10/21 04:08:30;;;;;;;17.90;9.63;;;;;;;9.84;100.00;98663.84;6214814;23;20008;-84
2023/10/21 04:10:55;;;;;;;16.55;10.05;;;;;;;9.87;100.00;98667.88;6215142;23;20079;-83
2023/10/21 04:13:21;;;;;;;17.10;10.20;;;;;;;9.83;100.00;98666.53;6216558;23;20036;-78
2023/10/21 04:15:46;;;;;;;23.02;10.68;;;;;;;9.73;100.00;98651.97;6216371;23;20363;-82
2023/10/21 04:18:12;;;;;;;18.65;9.65;;;;;;;9.90;100.00;98668.38;6216689;23;20051;-80
2023/10/21 04:20:38;;;;;;;17.52;9.50;;;;;;;9.94;100.00;98663.78;6216179;23;20139;-83
2023/10/21 04:23:03;;;;;;;17.52;9.00;;;;;;;10.19;100.00;98690.59;6216793;23;20008;-85
2023/10/21 04:25:29;;;;;;;20.25;9.90;;;;;;;10.10;100.00;98669.06;6217692;23;20005;-84
2023/10/21 04:27:56;;;;;;;16.63;9.52;;;;;;;10.20;100.00;98676.75;6218035;23;20005;-84
2023/10/21 04:30:23;;;;;;;18.08;9.88;;;;;;;10.35;100.00;98693.38;6190368;23;20046;-82
2023/10/21 04:32:50;;;;;;;16.48;9.50;;;;;;;10.38;100.00;98700.81;6216957;23;20051;-84
2023/10/21 04:35:15;;;;;;;14.77;9.68;;;;;;;10.36;100.00;98705.31;6216522;23;20001;-84
2023/10/21 04:37:41;;;;;;;21.63;11.43;;;;;;;10.39;100.00;98707.59;6216489;23;20012;-79
2023/10/21 04:40:08;;;;;;;17.75;10.55;;;;;;;10.43;100.00;98706.38;6216539;23;20327;-78
2023/10/21 04:42:33;;;;;;;18.75;10.25;;;;;;;10.43;100.00;98714.09;6216859;23;20004;-80
2023/10/21 04:44:58;;;;;;;20.17;10.05;;;;;;;10.39;100.00;98723.06;6216233;23;20007;-80
2023/10/21 04:47:24;;;;;;;23.38;10.45;;;;;;;10.38;100.00;98718.88;6216638;23;20044;-83
2023/10/21 04:49:49;;;;;;;23.17;9.52;;;;;;;10.10;100.00;98691.47;6216660;23;20123;-82
2023/10/21 04:52:15;;;;;;;17.92;10.02;;;;;;;10.25;100.00;98714.09;6213532;23;20427;-82
2023/10/21 04:54:43;;;;;;;17.80;9.70;;;;;;;10.32;100.00;98733.19;6216071;23;20554;-81
2023/10/21 04:57:10;;;;;;;17.45;9.73;;;;;;;10.31;100.00;98741.84;6216298;23;20339;-82
2023/10/21 04:59:35;;;;;;;19.92;9.10;;;;;;;10.27;100.00;98747.47;6216637;23;20370;-80
2023/10/21 05:02:01;;;;;;;20.42;9.05;;;;;;;10.15;100.00;98731.38;6216089;23;20009;-85
2023/10/21 05:04:27;;;;;;;17.10;9.23;;;;;;;10.20;100.00;98736.88;6216466;23;20062;-85
2023/10/21 05:06:52;;;;;;;20.23;9.70;;;;;;;10.16;100.00;98732.97;6213539;23;20469;-85
2023/10/21 05:09:17;;;;;;;18.77;9.18;;;;;;;10.19;100.00;98745.56;6216082;23;20000;-83
2023/10/21 05:11:43;;;;;;;21.42;10.30;;;;;;;10.13;100.00;98755.66;6216330;23;20084;-85
2023/10/21 05:14:08;;;;;;;18.70;9.38;;;;;;;10.04;100.00;98750.44;6216474;23;20031;-79
2023/10/21 05:16:33;;;;;;;17.17;9.40;;;;;;;10.09;100.00;98762.06;6216146;23;20423;-80
2023/10/21 05:18:59;;;;;;;21.35;9.57;;;;;;;10.05;100.00;98761.56;6216272;23;20335;-83
2023/10/21 05:21:24;;;;;;;18.25;9.80;;;;;;;9.82;100.00;98742.25;6216198;23;20012;-80
2023/10/21 05:23:50;;;;;;;20.77;9.50;;;;;;;9.83;100.00;98765.28;6215597;23;20036;-78
2023/10/21 05:26:17;;;;;;;19.20;9.30;;;;;;;9.98;100.00;98779.34;6216086;23;20013;-81
2023/10/21 05:28:42;;;;;;;17.00;9.65;;;;;;;9.85;100.00;98763.41;6216089;23;20423;-81
2023/10/21 05:31:08;;;;;;;21.10;10.57;;;;;;;10.10;100.00;98782.56;6215591;23;20063;-79
2023/10/21 05:33:33;;;;;;;19.73;10.23;;;;;;;10.07;100.00;98772.53;6216411;23;20000;-81
2023/10/21 05:35:59;;;;;;;22.25;10.00;;;;;;;10.27;100.00;98791.31;6215930;23;20001;-79
2023/10/21 05:38:25;;;;;;;22.27;10.57;;;;;;;10.27;100.00;98792.13;6216006;23;20004;-87
2023/10/21 05:40:50;;;;;;;20.55;9.93;;;;;;;10.23;100.00;98795.16;6215841;23;20840;-86
2023/10/21 05:43:16;;;;;;;23.38;10.90;;;;;;;9.90;100.00;98750.06;6216102;23;20036;-86
2023/10/21 05:45:48;;;;;;;23.67;10.70;;;;;;;9.16;100.00;98629.84;6211976;23;20064;-86
2023/10/21 05:48:24;;;;;;;;;;;;;;;;;;;;;
2023/10/21 05:51:00;;;;;;;23.52;10.98;;;;;;;9.71;100.00;98730.34;6215534;23;20087;-86
2023/10/21 05:53:25;;;;;;;19.38;10.25;;;;;;;10.25;100.00;98819.03;6215985;23;20032;-86
2023/10/21 05:56:04;;;;;;;20.15;10.40;;;;;;;9.78;100.00;98744.31;6215952;23;20012;-85
2023/10/21 05:59:18;;;;;;;19.63;11.45;;;;;;;10.38;100.00;98829.00;6214335;23;20015;-86
2023/10/21 06:05:09;;;;;;;26.25;11.45;;;;;;;10.48;100.00;98828.00;6215913;23;20513;-86
2023/10/21 06:07:34;;;;;;;20.40;11.38;;;;;;;10.53;100.00;98825.00;6216268;23;20484;-86
2023/10/21 06:10:00;;;;;;;14.88;10.25;;;;;;;10.64;100.00;98848.03;6216053;23;20083;-86
2023/10/21 06:12:25;;;;;;;22.00;10.30;;;;;;;10.34;100.00;98797.53;6215631;23;20011;-83
2023/10/21 06:14:51;;;;;;;15.90;9.73;;;;;;;10.69;100.00;98852.72;6215739;23;20327;-80
2023/10/21 06:17:17;;;;;;;15.63;9.70;;;;;;;10.73;100.00;98854.09;6215477;23;20001;-82
2023/10/21 06:19:45;;;;;;;19.33;10.02;;;;;;;10.77;100.00;98863.16;6215665;23;20075;-86
2023/10/21 06:22:13;;;;;;;26.13;10.93;;;;;;;10.81;100.00;98870.44;6215970;23;20032;-86
2023/10/21 06:24:39;;;;;;;19.45;9.98;;;;;;;10.83;100.00;98867.75;6215591;23;20032;-86
2023/10/21 06:27:07;;;;;;;19.65;9.90;;;;;;;10.88;100.00;98873.25;6215226;23;20055;-86
2023/10/21 06:29:32;;;;;;;18.27;9.05;;;;;;;10.88;100.00;98866.31;6215557;23;20015;-86
2023/10/21 06:31:58;;;;;;;19.33;10.23;;;;;;;10.92;100.00;98882.34;6215297;23;20079;-86
2023/10/21 06:34:23;;;;;;;17.45;9.10;;;;;;;11.01;100.00;98885.81;6215439;23;20000;-86
2023/10/21 06:36:49;;;;;;;19.73;8.95;;;;;;;11.04;100.00;98888.94;6215657;23;19996;-86
2023/10/21 06:39:14;;;;;;;14.73;8.15;;;;;;;11.08;100.00;98898.00;6215705;23;20324;-86
2023/10/21 06:41:40;;;;;;;13.63;8.57;;;;;;;11.10;100.00;98895.25;6215190;23;20075;-85
2023/10/21 06:44:05;;;;;;;18.42;9.05;;;;;;;11.08;100.00;98905.75;6215674;23;19997;-86
2023/10/21 06:46:32;;;;;;;17.50;8.90;;;;;;;11.09;100.00;98914.31;6214889;23;20019;-86
2023/10/21 06:48:58;;;;;;;17.02;8.88;;;;;;;11.16;100.00;98905.81;6216508;23;20328;-75
2023/10/21 06:51:23;;;;;;;19.83;8.88;;;;;;;11.28;100.00;98924.50;6215544;23;20449;-83
2023/10/21 06:53:49;;;;;;;18.45;8.45;;;;;;;11.35;100.00;98916.97;6215183;23;20076;-83
2023/10/21 06:56:14;;;;;;;15.75;9.07;;;;;;;11.39;100.00;98920.88;6214835;23;20304;-76
2023/10/21 06:58:40;;;;;;;20.88;9.18;;;;;;;11.43;100.00;98927.41;6214967;23;20028;-84
2023/10/21 07:01:06;;;;;;;12.50;8.27;;;;;;;11.47;100.00;98934.69;6215334;23;20005;-79
2023/10/21 07:03:32;;;;;;;15.70;8.55;;;;;;;11.40;100.00;98914.75;6214971;23;20084;-85
2023/10/21 07:05:58;;;;;;;17.00;8.65;;;;;;;11.55;100.00;98939.13;6215484;23;20047;-84
2023/10/21 07:08:23;;;;;;;14.18;8.82;;;;;;;11.54;100.00;98940.09;6215434;23;20456;-82
2023/10/21 07:10:49;;;;;;;13.57;8.18;;;;;;;11.53;100.00;98938.47;6215272;23;20016;-86
2023/10/21 07:13:14;;;;;;;17.92;8.95;;;;;;;11.53;100.00;98935.88;6215093;23;20327;-86
2023/10/21 07:15:40;;;;;;;16.17;7.80;;;;;;;11.63;100.00;98959.06;6215014;23;20104;-83
2023/10/21 07:18:06;;;;;;;14.70;8.20;;;;;;;11.56;100.00;98947.69;6214879;23;20096;-81
2023/10/21 07:20:32;;;;;;;14.63;6.97;;;;;;;11.59;100.00;98966.28;6214096;23;20401;-82
2023/10/21 07:22:57;;;;;;;13.88;7.22;;;;;;;11.66;100.00;98985.44;6215769;23;20083;-84
2023/10/21 07:25:23;;;;;;;12.98;7.13;;;;;;;11.68;100.00;98993.03;6215156;23;20437;-79
2023/10/21 07:27:49;;;;;;;12.25;6.68;;;;;;;11.56;100.00;98973.53;6215426;23;20330;-83
2023/10/21 07:30:15;;;;;;;10.00;6.93;;;;;;;11.58;100.00;98975.00;6215538;23;20010;-83
2023/10/21 07:32:40;;;;;;;15.18;7.35;;;;;;;11.70;100.00;99022.13;6215201;23;20071;-84
2023/10/21 07:35:06;;;;;;;13.50;7.15;;;;;;;11.70;100.00;99024.72;6215345;23;20004;-84
2023/10/21 07:37:31;;;;;;;12.25;6.97;;;;;;;11.60;100.00;99024.81;6214860;23;20022;-77
2023/10/21 07:40:01;;;;;;;8.68;5.15;;;;;;;11.60;100.00;99048.09;6215091;23;20036;-81
2023/10/21 07:42:27;;;;;;;7.47;4.50;;;;;;;11.57;100.00;99055.31;6214997;23;20001;-87
2023/10/21 07:44:53;;;;;;;10.35;4.50;;;;;;;11.55;100.00;99063.22;6213156;23;20054;-81
2023/10/21 07:47:18;;;;;;;9.63;3.50;;;;;;;11.52;100.00;99066.09;6215081;23;20083;-77
2023/10/21 07:49:44;;;;;;;7.25;3.22;;;;;;;11.45;100.00;99076.19;6212361;23;20043;-83
2023/10/21 07:52:10;;;;;;;5.18;2.30;;;;;;;11.37;100.00;99075.28;6214445;23;20046;-77
2023/10/21 07:54:37;;;;;;;5.72;2.20;;;;;;;11.34;100.00;99073.00;6215382;23;20005;-83
2023/10/21 07:57:04;;;;;;;4.40;1.75;;;;;;;11.35;100.00;99095.28;6215025;23;20004;-83
2023/10/21 07:59:29;;;;;;;6.32;1.70;;;;;;;11.36;100.00;99097.72;6215141;23;20159;-85
2023/10/21 08:01:54;;;;;;;5.05;1.70;;;;;;;11.39;100.00;99101.78;6214750;23;20055;-80
2023/10/21 08:04:20;;;;;;;4.22;1.77;;;;;;;11.44;100.00;99104.78;6214477;23;20005;-83
2023/10/21 08:06:46;;;;;;;4.20;1.60;;;;;;;11.45;100.00;99103.81;6214698;23;20005;-86
2023/10/21 08:09:15;;;;;;;4.18;1.50;;;;;;;11.31;100.00;99099.94;6214921;23;20004;-82
2023/10/21 08:11:42;;;;;;;3.13;1.27;;;;;;;11.39;100.00;99125.03;6214687;23;20004;-81
2023/10/21 08:14:07;;;;;;;4.20;1.27;;;;;;;11.48;100.00;99132.75;6214566;23;20007;-85
2023/10/21 08:16:34;;;;;;;3.97;1.55;;;;;;;11.52;100.00;99135.06;6214436;23;20001;-82
2023/10/21 08:19:00;;;;;;;2.85;1.30;;;;;;;11.53;100.00;99139.28;6214199;23;20100;-81
2023/10/21 08:21:26;;;;;;;6.25;1.67;;;;;;;11.33;100.00;99115.31;6214446;23;20001;-78
2023/10/21 08:23:51;;;;;;;4.40;1.35;;;;;;;11.26;100.00;99117.63;6214430;23;20004;-80
2023/10/21 08:26:17;;;;;;;3.67;1.67;;;;;;;11.36;100.00;99133.91;6214410;23;20038;-82
2023/10/21 08:28:43;;;;;;;3.45;1.40;;;;;;;11.48;100.00;99140.50;6214711;23;20040;-89
2023/10/21 08:31:08;;;;;;;3.45;1.42;;;;;;;11.45;100.00;99142.56;6214920;23;20039;-81
2023/10/21 08:33:33;;;;;;;3.17;1.75;;;;;;;11.52;100.00;99135.88;6187478;23;20067;-82
2023/10/21 08:35:59;;;;;;;4.43;1.83;;;;;;;11.58;100.00;99144.81;6214278;23;20035;-84
2023/10/21 08:38:25;;;;;;;5.95;1.67;;;;;;;11.62;100.00;99144.41;6214449;23;20031;-76
2023/10/21 08:40:50;;;;;;;4.82;1.55;;;;;;;11.64;100.00;99139.09;6214649;23;20001;-83
2023/10/21 08:43:21;;;;;;;3.35;1.30;;;;;;;11.74;100.00;99143.25;6214598;23;20007;-83
2023/10/21 08:45:48;;;;;;;4.78;1.20;;;;;;;11.70;100.00;99130.72;6214343;23;20016;-86
2023/10/21 08:48:15;;;;;;;3.13;1.30;;;;;;;11.75;100.00;99134.53;6214093;23;20453;-84
2023/10/21 08:50:43;;;;;;;1.50;1.00;;;;;;;11.96;100.00;99159.34;6214454;23;20442;-82
2023/10/21 08:53:11;;;;;;;2.97;1.00;;;;;;;12.01;100.00;99149.38;6214764;23;20080;-84
2023/10/21 08:55:38;;;;;;;1.42;0.70;;;;;;;12.18;100.00;99164.06;6214780;23;20001;-84
2023/10/21 08:58:06;;;;;;;1.77;0.90;;;;;;;12.17;100.00;99139.16;6217187;23;20464;-86
2023/10/21 09:00:32;;;;;;;2.72;1.10;;;;;;;12.53;100.00;99168.44;6214859;23;20001;-87
2023/10/21 09:02:57;;;;;;;5.03;0.95;;;;;;;12.55;100.00;99173.47;6216365;23;20005;-84
2023/10/21 09:05:23;;;;;;;3.50;0.93;;;;;;;12.50;100.00;99171.34;6216051;23;20022;-84
2023/10/21 09:07:51;;;;;;;2.03;0.98;;;;;;;12.60;100.00;99187.59;6214926;23;20011;-79
2023/10/21 09:10:18;;;;;;;3.58;1.30;;;;;;;12.43;100.00;99146.19;6217063;23;20004;-85
2023/10/21 09:12:45;;;;;;;2.83;0.85;;;;;;;12.74;100.00;99190.63;6216156;23;19997;-83
2023/10/21 09:15:11;;;;;;;3.08;0.80;;;;;;;12.59;100.00;99185.97;6214817;23;20059;-85
2023/10/21 09:17:38;;;;;;;2.20;0.82;;;;;;;12.58;100.00;99197.28;6189985;23;20031;-81
2023/10/21 09:20:13;;;;;;;4.03;0.82;;;;;;;12.53;100.00;99209.06;6216710;23;20007;-79
2023/10/21 09:22:40;;;;;;;4.28;0.85;;;;;;;12.46;100.00;99182.13;6216433;23;20004;-81
2023/10/21 09:25:09;;;;;;;3.08;0.80;;;;;;;12.22;100.00;99141.31;6215655;23;20437;-77
2023/10/21 09:27:34;;;;;;;2.63;0.82;;;;;;;12.53;100.00;99201.28;6215983;23;20013;-81
2023/10/21 09:30:00;;;;;;;2.90;0.80;;;;;;;12.53;100.00;99212.47;6215766;23;20419;-85
2023/10/21 09:32:29;;;;;;;3.83;1.15;;;;;;;12.49;100.00;99205.16;6215799;23;20318;-86
2023/10/21 09:35:21;;;;;;;1.65;0.70;;;;;;;12.41;100.00;99205.88;6215688;23;20011;-82
2023/10/21 09:37:50;;;;;;;3.53;0.98;;;;;;;12.42;100.00;99210.09;6215905;23;20000;-84
2023/10/21 09:40:16;;;;;;;4.43;0.98;;;;;;;12.46;100.00;99210.59;6215778;23;20058;-82
2023/10/21 09:42:42;;;;;;;3.03;0.80;;;;;;;12.42;100.00;99220.44;6215966;23;20004;-87
2023/10/21 09:45:09;;;;;;;5.13;1.17;;;;;;;12.39;100.00;99225.09;6215730;23;20011;-81
2023/10/21 09:47:38;;;;;;;2.60;1.00;;;;;;;12.34;100.00;99228.13;6213665;23;20055;-90
2023/10/21 09:50:09;;;;;;;4.38;0.90;;;;;;;12.31;100.00;99237.03;6217050;23;20035;-94
2023/10/21 09:52:55;;;;;;;7.40;1.23;;;;;;;12.34;100.00;99235.91;6217332;23;20005;-87
2023/10/21 09:55:27;;;;;;;3.83;0.90;;;;;;;12.40;100.00;99224.16;6216327;23;20059;-88
2023/10/21 09:57:57;;;;;;;3.92;1.10;;;;;;;12.49;100.00;99233.63;6215943;23;20020;-92
2023/10/21 10:00:24;;;;;;;4.32;1.20;;;;;;;12.69;100.00;99255.81;6215956;23;20430;-90
2023/10/21 10:02:53;;;;;;;3.28;0.85;;;;;;;12.65;100.00;99251.88;6215899;23;20000;-90
2023/10/21 10:05:20;;;;;;;3.20;0.93;;;;;;;12.81;100.00;99269.34;6215962;23;20006;-87
2023/10/21 10:07:47;;;;;;;5.30;1.20;;;;;;;12.81;100.00;99254.63;6214143;23;20012;-91
2023/10/21 10:10:14;;;;;;;3.08;0.85;;;;;;;13.07;100.00;99272.78;6218901;23;20004;-94
2023/10/21 10:13:01;;;;;;;4.72;1.42;;;;;;;13.05;100.00;99274.72;6216663;23;20063;-94
2023/10/21 10:15:32;;;;;;;5.55;1.50;;;;;;;13.11;100.00;99274.13;6216113;23;20000;-88
2023/10/21 10:17:58;;;;;;;7.40;0.98;;;;;;;13.06;100.00;99278.13;6218305;23;19997;-89
2023/10/21 10:20:26;;;;;;;4.15;0.93;;;;;;;12.96;100.00;99282.59;6216936;23;20012;-92
2023/10/21 10:23:03;;;;;;;3.95;0.98;;;;;;;12.90;100.00;99273.66;6217431;23;20008;-79
2023/10/21 10:25:34;;;;;;;5.35;1.10;;;;;;;12.86;100.00;99251.56;6216166;23;20005;-89
2023/10/21 10:28:04;;;;;;;3.50;0.95;;;;;;;12.95;100.00;99255.88;6215684;23;20008;-90
2023/10/21 10:30:31;;;;;;;4.53;1.10;;;;;;;13.15;100.00;99297.97;6215657;23;20332;-88
2023/10/21 10:33:02;;;;;;;5.45;1.23;;;;;;;13.06;100.00;99278.13;6216272;23;20727;-89
2023/10/21 10:35:40;;;;;;;4.45;1.27;;;;;;;13.14;100.00;99293.75;6215759;23;20431;-93
2023/10/21 10:38:25;;;;;;;4.80;1.00;;;;;;;13.17;100.00;99303.81;6216949;23;20004;-87
2023/10/21 10:40:52;;;;;;;4.57;1.02;;;;;;;13.05;100.00;99274.72;6215656;23;20423;-84
2023/10/21 10:43:20;;;;;;;4.53;0.88;;;;;;;12.87;100.00;99253.19;6213790;23;20001;-88
2023/10/21 10:45:47;;;;;;;4.15;1.17;;;;;;;13.00;100.00;99289.13;6217002;23;20012;-89
2023/10/21 10:48:12;;;;;;;4.45;0.90;;;;;;;13.01;100.00;99293.34;6216174;23;20009;-82
2023/10/21 10:50:38;;;;;;;7.13;1.00;;;;;;;13.08;100.00;99284.00;6215509;23;20012;-88
2023/10/21 10:53:19;;;;;;;7.90;1.40;;;;;;;13.34;100.00;99315.97;6215463;23;20005;-85
2023/10/21 10:55:48;;;;;;;;;;;;;;;13.50;100.00;99328.25;6216812;23;20438;-84
2023/10/21 10:58:18;;;;;;;6.80;1.45;;;;;;;13.75;100.00;99322.22;6216384;23;19915;-84
2023/10/21 11:00:45;;;;;;;4.57;1.10;;;;;;;13.83;100.00;99315.47;6216936;23;20024;-77
2023/10/21 11:03:10;;;;;;;4.70;1.10;;;;;;;13.71;100.00;99281.19;6220030;23;20012;-93
2023/10/21 11:05:37;;;;;;;6.47;1.20;;;;;;;13.76;100.00;99305.72;6216496;23;20019;-92
2023/10/21 11:08:04;;;;;;;6.82;1.00;;;;;;;13.81;100.00;99318.22;6224512;23;20009;-90
2023/10/21 11:10:30;;;;;;;5.50;1.83;;;;;;;13.78;100.00;99318.53;6215244;23;20008;-82
2023/10/21 11:12:55;;;;;;;6.15;1.20;;;;;;;13.84;100.00;99320.50;6215890;23;20008;-85
2023/10/21 11:15:22;;;;;;;5.85;1.50;;;;;;;13.85;100.00;99314.34;6215507;23;20012;-86
2023/10/21 11:17:48;;;;;;;5.85;1.10;;;;;;;14.01;100.00;99327.41;6215163;23;20001;-92
2023/10/21 11:20:15;;;;;;;4.75;1.23;;;;;;;14.15;100.00;99327.78;6215256;23;20011;-75